Time;durP1;ratioP1;P1;durP2;ratioP2;P2;SDS_P1;SDS_P2;PMS_P1;PMS_P2;Temp;Humidity;BMP_temperature;BMP_pressure;BME280_temperature;BME280_humidity;BME280_pressure;Samples;Min_cycle;Max_cycle;Signal;HPM_P1;HPM_P2
2021/12/11 00:01:44;;;;;;;;;;;4.60;99.90;;;;;;4904934;29;19915;-71
2021/12/11 00:04:13;;;;;;;;;;;4.50;99.90;;;;;;4910726;29;20025;-72
2021/12/11 00:06:41;;;;;;;;;;;4.50;99.90;;;;;;4910920;29;19918;-71
2021/12/11 00:09:18;;;;;;;;;;;4.40;99.90;;;;;;4913711;29;19962;-70
2021/12/11 00:11:47;;;;;;;;;;;4.40;99.90;;;;;;4913798;29;19911;-71
2021/12/11 00:14:14;;;;;;;;;;;4.50;99.90;;;;;;4911331;29;20266;-70
2021/12/11 00:16:40;;;;;;;;;;;4.50;99.90;;;;;;4914287;29;19911;-70
2021/12/11 00:19:11;;;;;;;;;;;4.50;99.90;;;;;;4910384;29;19915;-71
2021/12/11 00:21:37;;;;;;;;;;;4.50;99.90;;;;;;4912725;29;19911;-72
2021/12/11 00:24:03;;;;;;;;;;;4.40;99.90;;;;;;4912369;29;19918;-69
2021/12/11 00:26:35;;;;;;;;;;;4.40;99.90;;;;;;4912918;29;20025;-71
2021/12/11 00:29:01;;;;;;;;;;;4.40;99.90;;;;;;4911040;29;19911;-71
2021/12/11 00:31:27;;;;;;;;;;;4.40;99.90;;;;;;4912221;29;19919;-71
2021/12/11 00:33:54;;;;;;;;;;;4.40;99.90;;;;;;4913550;29;20362;-71
2021/12/11 00:36:28;;;;;;;;;;;4.40;99.90;;;;;;4918960;29;19967;-72
2021/12/11 00:39:00;;;;;;;;;;;4.30;99.90;;;;;;4911174;29;20372;-70
2021/12/11 00:41:25;;;;;;;;;;;4.30;99.90;;;;;;4914486;29;19975;-70
2021/12/11 00:43:51;;;;;;;;;;;4.30;99.90;;;;;;4909213;29;19950;-71
2021/12/11 00:46:23;;;;;;;;;;;4.10;99.90;;;;;;4912570;29;20388;-70
2021/12/11 00:48:49;;;;;;;;;;;4.10;99.90;;;;;;4922103;29;19911;-71
2021/12/11 00:51:16;;;;;;;;;;;4.10;99.90;;;;;;4909455;29;19922;-71
2021/12/11 00:53:48;;;;;;;;;;;4.10;99.90;;;;;;4910379;29;20013;-71
2021/12/11 00:56:20;;;;;;;;;;;4.10;99.90;;;;;;4902267;29;19912;-71
2021/12/11 00:58:47;;;;;;;;;;;4.00;99.90;;;;;;4911784;29;19923;-71
2021/12/11 01:01:15;;;;;;;;;;;4.00;99.90;;;;;;4909849;29;19914;-70
2021/12/11 01:03:53;;;;;;;;;;;4.00;99.90;;;;;;4913490;29;19911;-71
2021/12/11 01:06:20;;;;;;;;;;;4.00;99.90;;;;;;4906353;29;19967;-71
2021/12/11 01:08:52;;;;;;;;;;;4.00;99.90;;;;;;4912716;29;19943;-70
2021/12/11 01:11:23;;;;;;;;;;;4.00;99.90;;;;;;4910765;29;19918;-72
2021/12/11 01:13:54;;;;;;;;;;;4.10;99.90;;;;;;4912884;29;19919;-71
2021/12/11 01:16:21;;;;;;;;;;;4.10;99.90;;;;;;4912612;29;19918;-71
2021/12/11 01:18:48;;;;;;;;;;;4.10;99.90;;;;;;4914078;29;19911;-72
2021/12/11 01:21:31;;;;;;;;;;;4.30;99.90;;;;;;4911334;29;19915;-71
2021/12/11 01:26:32;;;;;;;;;;;4.30;99.90;;;;;;4913779;29;19911;-70
2021/12/11 01:28:58;;;;;;;;;;;4.30;99.90;;;;;;4916267;29;19959;-71
2021/12/11 01:31:23;;;;;;;;;;;4.40;99.90;;;;;;4914464;29;19919;-70
2021/12/11 01:33:50;;;;;;;;;;;4.40;99.90;;;;;;4914204;29;19942;-71
2021/12/11 01:36:15;;;;;;;;;;;4.40;99.90;;;;;;4914323;29;19918;-71
2021/12/11 01:38:42;;;;;;;;;;;4.40;99.90;;;;;;4913987;29;19911;-70
2021/12/11 01:41:12;;;;;;;;;;;4.40;99.90;;;;;;4916526;29;20002;-69
2021/12/11 01:43:39;;;;;;;;;;;4.40;99.90;;;;;;4914561;29;19917;-72
2021/12/11 01:46:06;;;;;;;;;;;4.40;99.90;;;;;;4913370;29;19911;-72
2021/12/11 01:48:33;;;;;;;;;;;4.40;99.90;;;;;;4911177;29;19914;-71
2021/12/11 01:51:03;;;;;;;;;;;4.50;99.90;;;;;;4906841;29;19935;-70
2021/12/11 01:53:40;;;;;;;;;;;4.50;99.90;;;;;;4912256;29;20277;-70
2021/12/11 01:56:10;;;;;;;;;;;4.50;99.90;;;;;;4915400;29;19911;-70
2021/12/11 01:58:39;;;;;;;;;;;4.60;99.90;;;;;;4912282;29;20281;-72
2021/12/11 02:01:14;;;;;;;;;;;4.60;99.90;;;;;;4915655;29;19958;-69
2021/12/11 02:03:40;;;;;;;;;;;4.70;99.90;;;;;;4913938;29;19950;-71
2021/12/11 02:06:05;;;;;;;;;;;4.70;99.90;;;;;;4911745;29;19946;-71
2021/12/11 02:08:32;;;;;;;;;;;4.50;99.90;;;;;;4896882;29;19919;-70
2021/12/11 02:11:01;;;;;;;;;;;4.40;99.90;;;;;;4914641;29;19938;-70
2021/12/11 02:13:39;;;;;;;;;;;4.40;99.90;;;;;;4910303;29;19950;-69
2021/12/11 02:16:05;;;;;;;;;;;4.30;99.90;;;;;;4915935;29;19953;-70
2021/12/11 02:18:36;;;;;;;;;;;4.40;99.90;;;;;;4915068;29;20255;-71
2021/12/11 02:21:10;;;;;;;;;;;4.40;99.90;;;;;;4915902;29;19966;-69
2021/12/11 02:23:35;;;;;;;;;;;4.50;99.90;;;;;;4911278;29;19918;-71
2021/12/11 02:26:03;;;;;;;;;;;4.70;99.90;;;;;;4915336;29;20313;-70
2021/12/11 02:28:34;;;;;;;;;;;4.50;99.90;;;;;;4913836;29;20426;-70
2021/12/11 02:31:12;;;;;;;;;;;4.30;99.90;;;;;;4908363;29;19919;-69
2021/12/11 02:33:42;;;;;;;;;;;4.00;99.90;;;;;;4904387;29;19919;-69
2021/12/11 02:36:17;;;;;;;;;;;4.00;99.90;;;;;;4911197;29;19918;-71
2021/12/11 02:38:43;;;;;;;;;;;4.00;99.90;;;;;;4912272;29;19911;-70
2021/12/11 02:41:11;;;;;;;;;;;4.20;99.90;;;;;;4915315;29;19911;-69
2021/12/11 02:43:43;;;;;;;;;;;4.30;99.90;;;;;;4913901;29;19956;-69
2021/12/11 02:46:14;;;;;;;;;;;4.40;99.90;;;;;;4915605;29;20566;-71
2021/12/11 02:48:47;;;;;;;;;;;4.30;99.90;;;;;;4910467;29;20445;-71
2021/12/11 02:51:16;;;;;;;;;;;4.30;99.90;;;;;;4911025;29;20370;-70
2021/12/11 02:53:41;;;;;;;;;;;4.30;99.90;;;;;;4908304;29;19938;-70
2021/12/11 02:56:12;;;;;;;;;;;4.10;99.90;;;;;;4914309;29;19911;-70
2021/12/11 02:58:40;;;;;;;;;;;4.30;99.90;;;;;;4913249;29;20289;-72
2021/12/11 03:01:10;;;;;;;;;;;4.20;99.90;;;;;;4912794;29;20141;-70
2021/12/11 03:03:41;;;;;;;;;;;4.10;99.90;;;;;;4909559;29;19963;-69
2021/12/11 03:06:16;;;;;;;;;;;4.10;99.90;;;;;;4912117;29;19915;-71
2021/12/11 03:08:42;;;;;;;;;;;4.10;99.90;;;;;;4907547;29;20013;-68
2021/12/11 03:11:09;;;;;;;;;;;4.20;99.90;;;;;;4910688;29;19943;-70
2021/12/11 03:13:38;;;;;;;;;;;4.20;99.90;;;;;;4911053;29;19923;-69
2021/12/11 03:16:04;;;;;;;;;;;4.20;99.90;;;;;;4913489;29;19923;-71
2021/12/11 03:18:30;;;;;;;;;;;4.30;99.90;;;;;;4907885;29;19912;-70
2021/12/11 03:20:56;;;;;;;;;;;4.20;99.90;;;;;;4904442;29;19959;-69
2021/12/11 03:23:22;;;;;;;;;;;4.30;99.90;;;;;;4912124;29;19958;-70
2021/12/11 03:25:49;;;;;;;;;;;4.30;99.90;;;;;;4913650;29;19911;-69
2021/12/11 03:28:16;;;;;;;;;;;4.40;99.90;;;;;;4901553;29;19946;-70
2021/12/11 03:30:56;;;;;;;;;;;4.60;99.90;;;;;;4911917;29;20002;-70
2021/12/11 03:33:25;;;;;;;;;;;4.60;99.90;;;;;;4906094;29;19919;-70
2021/12/11 03:35:51;;;;;;;;;;;4.80;99.90;;;;;;4910411;29;20365;-70
2021/12/11 03:38:17;;;;;;;;;;;4.80;99.90;;;;;;4907697;29;19918;-70
2021/12/11 03:40:43;;;;;;;;;;;4.70;99.90;;;;;;4914183;29;19911;-70
2021/12/11 03:43:10;;;;;;;;;;;4.60;99.90;;;;;;4913180;29;19915;-70
2021/12/11 03:45:37;;;;;;;;;;;4.60;99.90;;;;;;4906463;29;20002;-70
2021/12/11 03:48:06;;;;;;;;;;;4.80;99.90;;;;;;4912556;29;20497;-71
2021/12/11 03:50:32;;;;;;;;;;;5.00;99.90;;;;;;4904919;29;19981;-71
2021/12/11 03:52:58;;;;;;;;;;;5.10;99.90;;;;;;4908029;29;20431;-71
2021/12/11 03:55:26;;;;;;;;;;;4.90;99.90;;;;;;4912261;29;20362;-71
2021/12/11 03:57:57;;;;;;;;;;;4.70;99.90;;;;;;4914085;29;19918;-70
2021/12/11 04:00:25;;;;;;;;;;;4.60;99.90;;;;;;4919548;29;19911;-69
2021/12/11 04:02:52;;;;;;;;;;;4.50;99.90;;;;;;4912263;29;19934;-70
2021/12/11 04:05:21;;;;;;;;;;;4.30;99.90;;;;;;4912977;29;19911;-70
2021/12/11 04:07:48;;;;;;;;;;;4.10;99.90;;;;;;4913804;29;19926;-69
2021/12/11 04:10:15;;;;;;;;;;;4.10;99.90;;;;;;4904248;29;20341;-69
2021/12/11 04:12:41;;;;;;;;;;;4.10;99.90;;;;;;4913050;29;19911;-70
2021/12/11 04:15:08;;;;;;;;;;;4.20;99.90;;;;;;4911053;29;19918;-70
2021/12/11 04:17:33;;;;;;;;;;;4.30;99.90;;;;;;4912707;29;20282;-70
2021/12/11 04:20:00;;;;;;;;;;;4.30;99.90;;;;;;4911268;29;19915;-70
2021/12/11 04:22:26;;;;;;;;;;;4.20;99.90;;;;;;4916495;29;20362;-70
2021/12/11 04:24:51;;;;;;;;;;;4.30;99.90;;;;;;4910741;29;20021;-70
2021/12/11 04:27:18;;;;;;;;;;;4.40;99.90;;;;;;4913728;29;19911;-70
2021/12/11 04:29:44;;;;;;;;;;;4.50;99.90;;;;;;4914512;29;20354;-69
2021/12/11 04:32:10;;;;;;;;;;;4.40;99.90;;;;;;4912858;29;19919;-71
2021/12/11 04:34:36;;;;;;;;;;;4.30;99.90;;;;;;4909417;29;20374;-70
2021/12/11 04:37:11;;;;;;;;;;;4.20;99.90;;;;;;4913399;29;19943;-70
2021/12/11 04:39:38;;;;;;;;;;;4.20;99.90;;;;;;4904441;29;19911;-69
2021/12/11 04:42:14;;;;;;;;;;;4.20;99.90;;;;;;4912609;29;19911;-70
2021/12/11 04:44:45;;;;;;;;;;;4.50;99.90;;;;;;4912841;29;19959;-70
2021/12/11 04:47:21;;;;;;;;;;;4.60;99.90;;;;;;4905692;29;19939;-69
2021/12/11 04:49:54;;;;;;;;;;;4.80;99.90;;;;;;4911426;29;19911;-70
2021/12/11 04:52:33;;;;;;;;;;;5.00;99.90;;;;;;4916584;29;19958;-70
2021/12/11 05:03:47;;;;;;;;;;;4.60;99.90;;;;;;4913053;29;19918;-70
2021/12/11 05:06:36;;;;;;;;;;;4.40;99.90;;;;;;4914317;29;19919;-70
2021/12/11 05:11:54;;;;;;;;;;;4.60;99.90;;;;;;4913224;29;19915;-70
2021/12/11 05:14:20;;;;;;;;;;;4.50;99.90;;;;;;4914963;29;19954;-71
2021/12/11 05:16:46;;;;;;;;;;;4.60;99.90;;;;;;4915620;29;19959;-70
2021/12/11 05:19:12;;;;;;;;;;;4.50;99.90;;;;;;4916633;29;19915;-70
2021/12/11 05:21:39;;;;;;;;;;;4.40;99.90;;;;;;4918115;29;20356;-69
2021/12/11 05:24:05;;;;;;;;;;;4.30;99.90;;;;;;4915782;29;19938;-70
2021/12/11 05:26:31;;;;;;;;;;;4.30;99.90;;;;;;4916523;29;19935;-70
2021/12/11 05:28:56;;;;;;;;;;;4.30;99.90;;;;;;4913413;29;19911;-70
2021/12/11 05:31:22;;;;;;;;;;;4.30;99.90;;;;;;4908431;29;20318;-69
2021/12/11 05:33:48;;;;;;;;;;;4.20;99.90;;;;;;4916170;29;20449;-71
2021/12/11 05:36:15;;;;;;;;;;;4.30;99.90;;;;;;4916070;29;19918;-69
2021/12/11 05:38:41;;;;;;;;;;;4.30;99.90;;;;;;4915004;29;19919;-69
2021/12/11 05:41:09;;;;;;;;;;;4.30;99.90;;;;;;4906377;29;19911;-70
2021/12/11 05:43:35;;;;;;;;;;;4.20;99.90;;;;;;4917231;29;19914;-70
2021/12/11 05:46:04;;;;;;;;;;;4.30;99.90;;;;;;4915536;29;19911;-70
2021/12/11 05:48:30;;;;;;;;;;;4.50;99.90;;;;;;4916997;29;19911;-71
2021/12/11 05:50:57;;;;;;;;;;;4.50;99.90;;;;;;4910168;29;19918;-71
2021/12/11 05:53:23;;;;;;;;;;;4.50;99.90;;;;;;4916055;29;19926;-70
2021/12/11 05:55:51;;;;;;;;;;;4.60;99.90;;;;;;4914221;29;19914;-73
2021/12/11 05:58:25;;;;;;;;;;;4.50;99.90;;;;;;4916500;29;19984;-71
2021/12/11 06:00:51;;;;;;;;;;;4.50;99.90;;;;;;4904142;29;19920;-70
2021/12/11 06:03:17;;;;;;;;;;;4.50;99.90;;;;;;4912323;29;19945;-71
2021/12/11 06:05:45;;;;;;;;;;;4.50;99.90;;;;;;4914860;29;19955;-70
2021/12/11 06:08:11;;;;;;;;;;;4.40;99.90;;;;;;4917011;29;19911;-69
2021/12/11 06:10:39;;;;;;;;;;;4.30;99.90;;;;;;4905432;29;19908;-70
2021/12/11 06:13:05;;;;;;;;;;;4.50;99.90;;;;;;4909515;29;19966;-74
2021/12/11 06:15:31;;;;;;;;;;;4.60;99.90;;;;;;4914629;29;19907;-71
2021/12/11 06:17:57;;;;;;;;;;;4.70;99.90;;;;;;4911309;29;20370;-71
2021/12/11 06:20:25;;;;;;;;;;;4.70;99.90;;;;;;4913038;29;19911;-70
2021/12/11 06:22:50;;;;;;;;;;;4.60;99.90;;;;;;4913816;29;20006;-71
2021/12/11 06:25:18;;;;;;;;;;;4.50;99.90;;;;;;4913013;29;20318;-70
2021/12/11 06:27:44;;;;;;;;;;;4.50;99.90;;;;;;4914505;29;19917;-70
2021/12/11 06:30:10;;;;;;;;;;;4.50;99.90;;;;;;4915559;29;19993;-71
2021/12/11 06:32:36;;;;;;;;;;;4.50;99.90;;;;;;4912769;29;20342;-70
2021/12/11 06:35:05;;;;;;;;;;;4.50;99.90;;;;;;4917777;29;19973;-69
2021/12/11 06:37:31;;;;;;;;;;;4.50;99.90;;;;;;4915865;29;19911;-71
2021/12/11 06:39:56;;;;;;;;;;;4.50;99.90;;;;;;4911032;29;19998;-70
2021/12/11 06:42:22;;;;;;;;;;;4.50;99.90;;;;;;4916368;29;19918;-70
2021/12/11 06:44:48;;;;;;;;;;;4.50;99.90;;;;;;4912249;29;19934;-69
2021/12/11 06:47:15;;;;;;;;;;;4.50;99.90;;;;;;4910867;29;19938;-71
2021/12/11 06:49:41;;;;;;;;;;;4.40;99.90;;;;;;4911602;29;20005;-70
2021/12/11 06:52:09;;;;;;;;;;;4.40;99.90;;;;;;4912843;29;19911;-71
2021/12/11 06:54:35;;;;;;;;;;;4.50;99.90;;;;;;4914665;29;19983;-69
2021/12/11 06:57:01;;;;;;;;;;;4.40;99.90;;;;;;4912893;29;20313;-70
2021/12/11 06:59:27;;;;;;;;;;;4.50;99.90;;;;;;4913443;29;19911;-72
2021/12/11 07:01:52;;;;;;;;;;;4.50;99.90;;;;;;4912005;29;19927;-71
2021/12/11 07:04:18;;;;;;;;;;;4.50;99.90;;;;;;4914394;29;19911;-71
2021/12/11 07:06:45;;;;;;;;;;;4.50;99.90;;;;;;4908385;29;19918;-71
2021/12/11 07:09:12;;;;;;;;;;;4.40;99.90;;;;;;4910386;29;20609;-70
2021/12/11 07:11:43;;;;;;;;;;;4.40;99.90;;;;;;4912852;29;20195;-71
2021/12/11 07:14:09;;;;;;;;;;;4.30;99.90;;;;;;4909416;29;20026;-71
2021/12/11 07:16:35;;;;;;;;;;;4.30;99.90;;;;;;4913141;29;20009;-71
2021/12/11 07:19:03;;;;;;;;;;;4.20;99.90;;;;;;4903549;29;19980;-69
2021/12/11 07:21:28;;;;;;;;;;;4.40;99.90;;;;;;4909670;29;19911;-70
2021/12/11 07:23:54;;;;;;;;;;;4.50;99.90;;;;;;4913824;29;19918;-69
2021/12/11 07:26:24;;;;;;;;;;;4.40;99.90;;;;;;4913256;29;19911;-71
2021/12/11 07:28:51;;;;;;;;;;;4.40;99.90;;;;;;4914173;29;19911;-69
2021/12/11 07:31:17;;;;;;;;;;;4.40;99.90;;;;;;4914545;29;19926;-69
2021/12/11 07:33:42;;;;;;;;;;;4.40;99.90;;;;;;4913838;29;19919;-70
2021/12/11 07:36:08;;;;;;;;;;;4.50;99.90;;;;;;4913674;29;19911;-70
2021/12/11 07:38:34;;;;;;;;;;;4.50;99.90;;;;;;4914174;29;19918;-70
2021/12/11 07:41:04;;;;;;;;;;;4.50;99.90;;;;;;4914689;29;19919;-70
2021/12/11 07:43:32;;;;;;;;;;;4.50;99.90;;;;;;4907872;29;19911;-70
2021/12/11 07:45:59;;;;;;;;;;;4.60;99.90;;;;;;4906715;29;19911;-71
2021/12/11 07:48:25;;;;;;;;;;;4.60;99.90;;;;;;4907664;29;19912;-70
2021/12/11 07:50:51;;;;;;;;;;;4.60;99.90;;;;;;4913730;29;19911;-70
2021/12/11 07:53:17;;;;;;;;;;;4.90;99.90;;;;;;4914911;29;19927;-70
2021/12/11 07:55:43;;;;;;;;;;;4.90;99.90;;;;;;4910826;29;19919;-70
2021/12/11 07:58:09;;;;;;;;;;;4.80;99.90;;;;;;4911690;29;19986;-71
2021/12/11 08:00:37;;;;;;;;;;;4.70;99.90;;;;;;4909524;29;19966;-71
2021/12/11 08:03:03;;;;;;;;;;;4.70;99.90;;;;;;4911169;29;19966;-71
2021/12/11 08:05:29;;;;;;;;;;;4.90;99.90;;;;;;4913103;29;19911;-70
2021/12/11 08:08:00;;;;;;;;;;;5.10;99.90;;;;;;4912942;29;19919;-71
2021/12/11 08:10:26;;;;;;;;;;;4.90;99.90;;;;;;4911071;29;20269;-71
2021/12/11 08:12:51;;;;;;;;;;;4.70;99.90;;;;;;4908093;29;20003;-70
2021/12/11 08:15:18;;;;;;;;;;;4.70;99.90;;;;;;4911195;29;19983;-70
2021/12/11 08:17:52;;;;;;;;;;;4.60;99.90;;;;;;4909260;29;20286;-70
2021/12/11 08:20:18;;;;;;;;;;;4.50;99.90;;;;;;4905245;29;19911;-70
2021/12/11 08:22:44;;;;;;;;;;;4.60;99.90;;;;;;4910909;29;19931;-71
2021/12/11 08:25:10;;;;;;;;;;;4.70;99.90;;;;;;4909220;29;19981;-69
2021/12/11 08:27:36;;;;;;;;;;;4.90;99.90;;;;;;4914327;29;19917;-69
2021/12/11 08:30:06;;;;;;;;;;;4.90;99.90;;;;;;4915148;29;20002;-70
2021/12/11 08:32:32;;;;;;;;;;;4.80;99.90;;;;;;4912985;29;19926;-71
2021/12/11 08:34:58;;;;;;;;;;;4.80;99.90;;;;;;4913442;29;19919;-70
2021/12/11 08:37:24;;;;;;;;;;;4.80;99.90;;;;;;4917880;29;19970;-69
2021/12/11 08:39:49;;;;;;;;;;;4.90;99.90;;;;;;4920008;29;19911;-70
2021/12/11 08:42:16;;;;;;;;;;;4.90;99.90;;;;;;4917050;29;19911;-70
2021/12/11 08:44:50;;;;;;;;;;;4.90;99.90;;;;;;4908786;29;19979;-70
2021/12/11 08:47:16;;;;;;;;;;;5.00;99.90;;;;;;4915450;29;20242;-71
2021/12/11 08:49:42;;;;;;;;;;;5.10;99.90;;;;;;4912695;29;19911;-69
2021/12/11 08:52:10;;;;;;;;;;;5.20;99.90;;;;;;4913366;29;19911;-71
2021/12/11 08:54:36;;;;;;;;;;;5.20;99.90;;;;;;4913021;29;19919;-71
2021/12/11 08:57:04;;;;;;;;;;;5.40;99.90;;;;;;4909324;29;19915;-70
2021/12/11 08:59:30;;;;;;;;;;;5.40;99.90;;;;;;4910667;29;20338;-73
2021/12/11 09:01:59;;;;;;;;;;;5.50;99.90;;;;;;4912071;29;20000;-70
2021/12/11 09:04:31;;;;;;;;;;;5.70;99.90;;;;;;4908863;29;20275;-69
2021/12/11 09:06:59;;;;;;;;;;;5.70;99.90;;;;;;4909553;29;20042;-70
2021/12/11 09:09:24;;;;;;;;;;;5.80;99.90;;;;;;4907245;29;19912;-71
2021/12/11 09:11:56;;;;;;;;;;;6.00;99.90;;;;;;4906998;29;19919;-70
2021/12/11 09:14:25;;;;;;;;;;;6.00;99.90;;;;;;4905086;29;20339;-69
2021/12/11 09:17:00;;;;;;;;;;;6.10;99.90;;;;;;4909010;29;19919;-69
2021/12/11 09:19:28;;;;;;;;;;;6.30;99.90;;;;;;4907469;29;20058;-68
2021/12/11 09:21:56;;;;;;;;;;;6.30;99.90;;;;;;4908438;29;19911;-70
2021/12/11 09:24:27;;;;;;;;;;;6.40;99.90;;;;;;4906840;29;20329;-72
2021/12/11 09:26:52;;;;;;;;;;;6.50;99.90;;;;;;4916043;29;19934;-70
2021/12/11 09:29:27;;;;;;;;;;;6.70;99.90;;;;;;4916507;29;19907;-70
2021/12/11 09:31:59;;;;;;;;;;;6.80;99.90;;;;;;4912203;29;20005;-68
2021/12/11 09:34:27;;;;;;;;;;;6.90;99.90;;;;;;4910782;29;19919;-70
2021/12/11 09:36:57;;;;;;;;;;;7.10;99.90;;;;;;4916166;29;19939;-69
2021/12/11 09:39:32;;;;;;;;;;;7.20;99.90;;;;;;4906043;29;20305;-70
2021/12/11 09:41:57;;;;;;;;;;;7.20;99.90;;;;;;4919772;29;20313;-69
2021/12/11 09:44:30;;;;;;;;;;;7.30;99.90;;;;;;4905550;29;19930;-70
2021/12/11 09:47:17;;;;;;;;;;;7.30;99.90;;;;;;4910554;29;20009;-69
2021/12/11 09:49:45;;;;;;;;;;;7.30;99.90;;;;;;4918384;29;19914;-70
2021/12/11 09:52:23;;;;;;;;;;;7.50;99.90;;;;;;4908149;29;20349;-69
2021/12/11 09:55:01;;;;;;;;;;;7.50;99.90;;;;;;4910491;29;20354;-70
2021/12/11 09:57:30;;;;;;;;;;;7.60;99.90;;;;;;4912784;29;19915;-70
2021/12/11 09:59:57;;;;;;;;;;;7.60;99.90;;;;;;4904838;29;20074;-69
2021/12/11 10:02:25;;;;;;;;;;;7.70;99.90;;;;;;4914713;29;19938;-70
2021/12/11 10:05:01;;;;;;;;;;;7.80;99.90;;;;;;4903391;29;19911;-69
2021/12/11 10:07:38;;;;;;;;;;;7.90;99.90;;;;;;4902383;29;19911;-69
2021/12/11 10:10:10;;;;;;;;;;;8.00;99.90;;;;;;4915346;29;20232;-70
2021/12/11 10:12:38;;;;;;;;;;;8.10;99.90;;;;;;4913728;29;20067;-70
2021/12/11 10:15:04;;;;;;;;;;;8.10;99.90;;;;;;4915393;29;19919;-69
2021/12/11 10:17:36;;;;;;;;;;;8.10;99.90;;;;;;4915617;29;20018;-71
2021/12/11 10:20:05;;;;;;;;;;;8.00;99.90;;;;;;4912993;29;19938;-69
2021/12/11 10:22:32;;;;;;;;;;;8.10;99.90;;;;;;4914953;29;19918;-69
2021/12/11 10:25:02;;;;;;;;;;;8.20;99.90;;;;;;4912661;29;20092;-70
2021/12/11 10:27:33;;;;;;;;;;;8.10;99.90;;;;;;4915141;29;19911;-69
2021/12/11 10:29:59;;;;;;;;;;;7.90;99.90;;;;;;4909680;29;19907;-71
2021/12/11 10:32:26;;;;;;;;;;;7.90;99.90;;;;;;4913937;29;20009;-69
2021/12/11 10:34:53;;;;;;;;;;;8.10;99.90;;;;;;4910938;29;19926;-71
2021/12/11 10:37:21;;;;;;;;;;;8.10;99.90;;;;;;4913963;29;20543;-69
2021/12/11 10:39:48;;;;;;;;;;;8.00;99.90;;;;;;4918627;29;19918;-70
2021/12/11 10:42:14;;;;;;;;;;;7.90;99.90;;;;;;4916010;29;19966;-71
2021/12/11 10:44:42;;;;;;;;;;;7.70;99.90;;;;;;4917819;29;19922;-70
2021/12/11 10:47:11;;;;;;;;;;;7.50;99.90;;;;;;4915940;29;19918;-68
2021/12/11 10:49:37;;;;;;;;;;;7.40;99.90;;;;;;4914231;29;19942;-70
2021/12/11 10:52:05;;;;;;;;;;;7.40;99.90;;;;;;4913876;29;19911;-69
2021/12/11 10:54:31;;;;;;;;;;;7.50;99.90;;;;;;4915881;29;19976;-69
2021/12/11 10:56:58;;;;;;;;;;;7.60;99.90;;;;;;4913181;29;20289;-70
2021/12/11 10:59:25;;;;;;;;;;;7.60;99.90;;;;;;4910535;29;19911;-69
2021/12/11 11:02:10;;;;;;;;;;;7.70;99.90;;;;;;4914013;29;19911;-69
2021/12/11 11:04:40;;;;;;;;;;;7.70;99.90;;;;;;4917863;29;19915;-68
2021/12/11 11:07:07;;;;;;;;;;;7.80;99.90;;;;;;4918351;29;19927;-69
2021/12/11 11:29:19;;;;;;;;;;;8.00;99.90;;;;;;5141950;27;20302;-69
2021/12/11 11:31:46;;;;;;;;;;;9.20;99.90;;;;;;5129926;27;20320;-69
2021/12/11 11:34:14;;;;;;;;;;;9.40;99.90;;;;;;5119499;28;19920;-69
2021/12/11 11:36:43;;;;;;;;;;;9.50;99.90;;;;;;5111465;27;19916;-67
2021/12/11 11:39:10;;;;;;;;;;;9.60;99.90;;;;;;5117115;28;20320;-69
2021/12/11 11:41:44;;;;;;;;;;;9.80;99.90;;;;;;5116606;27;19951;-69
2021/12/11 11:44:11;;;;;;;;;;;10.00;99.90;;;;;;5117500;28;19994;-68
2021/12/11 11:46:38;;;;;;;;;;;10.00;99.90;;;;;;5113378;28;19966;-69
2021/12/11 11:49:07;;;;;;;;;;;10.10;99.90;;;;;;5106193;27;19928;-69
2021/12/11 11:51:34;;;;;;;;;;;10.10;99.90;;;;;;5105194;27;19923;-70
2021/12/11 11:54:01;;;;;;;;;;;10.10;99.90;;;;;;5110836;27;19934;-69
2021/12/11 11:56:29;;;;;;;;;;;10.10;99.90;;;;;;5109272;27;19939;-71
2021/12/11 11:58:55;;;;;;;;;;;10.10;99.90;;;;;;5109047;28;19992;-69
2021/12/11 12:01:25;;;;;;;;;;;10.20;99.90;;;;;;5111821;27;20397;-68
2021/12/11 12:03:51;;;;;;;;;;;10.30;99.90;;;;;;5118775;27;20005;-69
2021/12/11 12:06:23;;;;;;;;;;;10.30;99.90;;;;;;5115192;28;19920;-69
2021/12/11 12:08:50;;;;;;;;;;;10.30;99.90;;;;;;5117729;27;19938;-69
2021/12/11 12:11:16;;;;;;;;;;;10.40;99.90;;;;;;5110872;27;20339;-68
2021/12/11 12:13:42;;;;;;;;;;;10.40;99.90;;;;;;5113178;28;19953;-68
2021/12/11 12:16:10;;;;;;;;;;;10.40;99.90;;;;;;5116615;28;19923;-68
2021/12/11 12:18:36;;;;;;;;;;;10.40;99.90;;;;;;5115117;27;21279;-69
2021/12/11 12:21:04;;;;;;;;;;;10.40;99.90;;;;;;5096479;27;19967;-72
2021/12/11 12:23:31;;;;;;;;;;;10.40;99.90;;;;;;5096529;27;19919;-70
2021/12/11 12:25:59;;;;;;;;;;;10.30;99.90;;;;;;5100620;27;19912;-70
2021/12/11 12:28:24;;;;;;;;;;;10.30;99.90;;;;;;5095440;27;19931;-72
2021/12/11 12:30:54;;;;;;;;;;;10.30;99.90;;;;;;5094742;28;19924;-69
2021/12/11 12:33:19;;;;;;;;;;;10.30;99.90;;;;;;5094596;28;19945;-70
2021/12/11 12:35:46;;;;;;;;;;;10.30;99.90;;;;;;5096842;28;19915;-70
2021/12/11 12:38:16;;;;;;;;;;;10.10;99.90;;;;;;5105090;28;19912;-71
2021/12/11 12:41:00;;;;;;;;;;;10.10;99.90;;;;;;5097323;28;20085;-70
2021/12/11 12:46:32;;;;;;;;;;;10.00;99.90;;;;;;5077206;28;19916;-70
2021/12/11 12:49:02;;;;;;;;;;;10.10;99.90;;;;;;5099033;28;19932;-72
2021/12/11 12:51:29;;;;;;;;;;;10.20;99.90;;;;;;5093621;28;19912;-68
2021/12/11 12:53:56;;;;;;;;;;;10.30;99.90;;;;;;5094496;28;19920;-69
2021/12/11 12:56:30;;;;;;;;;;;10.40;99.90;;;;;;5100401;28;19950;-69
2021/12/11 12:59:06;;;;;;;;;;;10.50;99.90;;;;;;5096672;27;20442;-69
2021/12/11 13:01:34;;;;;;;;;;;10.60;99.90;;;;;;5102638;27;20243;-70
2021/12/11 13:04:05;;;;;;;;;;;10.70;99.90;;;;;;5109927;28;19915;-70
2021/12/11 13:06:34;;;;;;;;;;;10.90;99.90;;;;;;5102534;27;19941;-69
2021/12/11 13:09:09;;;;;;;;;;;11.00;99.90;;;;;;5106003;28;19931;-70
2021/12/11 13:11:41;;;;;;;;;;;11.10;99.90;;;;;;5099384;28;19956;-70
2021/12/11 13:14:09;;;;;;;;;;;11.00;99.90;;;;;;5105588;28;19972;-69
2021/12/11 13:16:39;;;;;;;;;;;11.20;99.90;;;;;;5104387;28;19920;-70
2021/12/11 13:19:08;;;;;;;;;;;11.20;99.90;;;;;;5094806;28;19922;-70
2021/12/11 13:21:38;;;;;;;;;;;11.20;99.90;;;;;;5099293;28;19912;-69
2021/12/11 13:24:08;;;;;;;;;;;11.20;99.90;;;;;;5106987;27;20003;-70
2021/12/11 13:26:35;;;;;;;;;;;11.20;99.90;;;;;;5092710;27;19964;-69
2021/12/11 13:29:03;;;;;;;;;;;11.20;99.90;;;;;;5095288;28;19955;-70
2021/12/11 13:31:34;;;;;;;;;;;11.10;99.90;;;;;;5105396;27;19994;-68
2021/12/11 13:34:00;;;;;;;;;;;11.00;99.90;;;;;;5100634;27;20316;-68
2021/12/11 13:36:27;;;;;;;;;;;11.00;99.90;;;;;;5097652;27;20386;-72
2021/12/11 13:38:53;;;;;;;;;;;10.80;99.90;;;;;;5107551;27;19911;-70
2021/12/11 13:53:57;;;;;;;8.43;1.75;;;10.70;99.90;;;;;;6267684;21;2059788;-70
2021/12/11 13:56:30;;;;;;;11.93;1.60;;;10.70;99.90;;;;;;6341785;22;20071;-70
2021/12/11 13:58:56;;;;;;;10.75;1.77;;;10.70;99.90;;;;;;6341544;22;20051;-71
2021/12/11 14:01:24;;;;;;;;;;;10.70;99.90;;;;;;6313698;22;20155;-70
2021/12/11 14:03:51;;;;;;;12.05;1.80;;;10.60;99.90;;;;;;6315049;22;19951;-70
2021/12/11 14:06:18;;;;;;;7.90;1.85;;;10.50;99.90;;;;;;6341794;22;19995;-70
2021/12/11 14:08:47;;;;;;;7.07;1.45;;;10.40;99.90;;;;;;6337090;22;20100;-69
2021/12/11 14:11:16;;;;;;;7.35;1.65;;;10.40;99.90;;;;;;6336503;22;20006;-69
2021/12/11 14:13:43;;;;;;;11.90;1.88;;;10.40;99.90;;;;;;6339595;22;20317;-68
2021/12/11 14:16:12;;;;;;;15.32;2.03;;;10.40;99.90;;;;;;6340782;22;19991;-68
2021/12/11 14:18:38;;;;;;;10.90;2.40;;;10.40;99.90;;;;;;6338020;22;20022;-68
2021/12/11 14:21:07;;;;;;;10.52;2.65;;;10.40;99.90;;;;;;6341677;22;20006;-69
2021/12/11 14:23:39;;;;;;;11.02;2.17;;;10.40;99.90;;;;;;6342268;22;20010;-68
2021/12/11 14:26:08;;;;;;;9.88;2.08;;;10.30;99.90;;;;;;6340023;22;19998;-69
2021/12/11 14:28:33;;;;;;;12.10;2.47;;;10.40;99.90;;;;;;6313521;22;20339;-68
2021/12/11 14:31:10;;;;;;;7.07;1.83;;;10.40;99.90;;;;;;6312810;22;20006;-68
2021/12/11 14:33:37;;;;;;;6.93;2.17;;;10.40;99.90;;;;;;6339681;22;20003;-69
2021/12/11 14:36:06;;;;;;;10.75;2.50;;;10.40;99.90;;;;;;6343188;22;19994;-69
2021/12/11 14:38:33;;;;;;;10.48;2.25;;;10.50;99.90;;;;;;6312994;22;20366;-69
2021/12/11 14:41:00;;;;;;;10.40;2.88;;;10.50;99.90;;;;;;6342735;22;19994;-68
2021/12/11 14:43:26;;;;;;;7.38;2.42;;;10.50;99.90;;;;;;6343237;22;20308;-71
2021/12/11 14:45:55;;;;;;;11.02;2.47;;;10.40;99.90;;;;;;6339616;22;19995;-70
2021/12/11 14:48:21;;;;;;;7.82;2.72;;;10.40;99.90;;;;;;6342366;22;20028;-69
2021/12/11 14:51:00;;;;;;;12.75;2.70;;;10.40;99.90;;;;;;6342530;22;19998;-68
2021/12/11 14:53:33;;;;;;;11.45;2.80;;;10.50;99.90;;;;;;6339281;22;20014;-69
2021/12/11 14:56:04;;;;;;;6.15;2.60;;;10.50;99.90;;;;;;6335859;22;20002;-68
2021/12/11 14:58:30;;;;;;;10.30;3.08;;;10.50;99.90;;;;;;6335015;22;20022;-69
2021/12/11 15:01:02;;;;;;;;;;;10.50;99.90;;;;;;6334421;22;20323;-69
2021/12/11 15:03:28;;;;;;;13.15;4.57;;;10.60;99.90;;;;;;6335713;22;20013;-71
2021/12/11 15:05:54;;;;;;;9.40;3.22;;;10.60;99.90;;;;;;6334472;22;20022;-68
2021/12/11 15:08:25;;;;;;;9.93;3.03;;;10.50;99.90;;;;;;6334731;22;20068;-69
2021/12/11 15:10:53;;;;;;;8.00;3.33;;;10.50;99.90;;;;;;6307202;22;20014;-69
2021/12/11 15:13:23;;;;;;;12.52;3.72;;;10.50;99.90;;;;;;6333744;22;20589;-69